createdAt,value
2019-03-25T00:00:53.892Z,3.93
2019-03-25T00:03:21.189Z,2.63
2019-03-25T00:05:49.719Z,3.40
2019-03-25T00:08:17.868Z,2.73
2019-03-25T00:10:45.177Z,2.60
2019-03-25T00:13:12.481Z,3.00
2019-03-25T00:15:39.892Z,3.43
2019-03-25T00:18:07.268Z,2.30
2019-03-25T00:20:35.176Z,2.87
2019-03-25T00:23:02.517Z,2.60
2019-03-25T00:25:29.928Z,3.00
2019-03-25T00:29:39.799Z,2.77
2019-03-25T00:32:08.172Z,3.15
2019-03-25T00:34:36.771Z,3.00
2019-03-25T00:37:05.247Z,2.97
2019-03-25T00:39:33.728Z,3.27
2019-03-25T00:42:02.245Z,3.47
2019-03-25T00:44:30.609Z,4.50
2019-03-25T00:46:58.977Z,3.97
2019-03-25T00:49:27.695Z,3.17
2019-03-25T00:51:56.130Z,3.50
2019-03-25T00:54:24.516Z,3.60
2019-03-25T00:56:53.297Z,4.50
2019-03-25T00:59:21.689Z,3.70
2019-03-25T01:01:50.151Z,3.93
2019-03-25T01:04:18.518Z,4.10
2019-03-25T01:06:46.888Z,4.10
2019-03-25T01:09:15.480Z,3.87
2019-03-25T01:11:48.964Z,3.87
2019-03-25T01:14:13.937Z,3.80
2019-03-25T01:16:42.566Z,3.33
2019-03-25T01:19:10.992Z,2.98
2019-03-25T01:21:39.930Z,3.40
2019-03-25T01:24:08.403Z,3.00
2019-03-25T01:26:36.785Z,3.33
2019-03-25T01:29:05.830Z,2.72
2019-03-25T01:31:34.461Z,2.47
2019-03-25T01:34:03.003Z,3.37
2019-03-25T01:36:31.371Z,2.90
2019-03-25T01:39:00.957Z,3.23
2019-03-25T01:41:29.313Z,3.30
2019-03-25T01:43:57.892Z,3.50
2019-03-25T01:46:26.260Z,3.27
2019-03-25T01:48:54.676Z,3.60
2019-03-25T01:51:23.504Z,4.13
2019-03-25T01:53:51.951Z,3.87
2019-03-25T01:56:20.320Z,3.73
2019-03-25T01:58:48.782Z,4.25
2019-03-25T02:01:17.147Z,3.90
2019-03-25T02:03:45.517Z,3.93
2019-03-25T02:06:14.017Z,4.58
2019-03-25T02:08:42.692Z,4.67
2019-03-25T02:11:11.066Z,4.37
2019-03-25T02:13:39.642Z,4.77
2019-03-25T02:16:08.009Z,4.70
2019-03-25T02:18:36.445Z,4.50
2019-03-25T02:21:05.291Z,4.30
2019-03-25T02:23:33.663Z,5.43
2019-03-25T02:26:02.256Z,4.27
2019-03-25T02:28:30.638Z,4.33
2019-03-25T02:30:59.198Z,5.00
2019-03-25T02:33:27.570Z,4.57
2019-03-25T02:35:55.942Z,4.72
2019-03-25T02:38:24.438Z,5.20
2019-03-25T02:40:53.125Z,4.70
2019-03-25T02:43:21.532Z,4.93
2019-03-25T02:45:49.989Z,4.80
2019-03-25T02:48:18.544Z,5.08
2019-03-25T02:50:47.650Z,5.17
2019-03-25T02:53:16.350Z,4.80
2019-03-25T02:55:44.716Z,5.77
2019-03-25T02:58:14.209Z,5.00
2019-03-25T03:00:42.571Z,4.30
2019-03-25T03:03:11.016Z,5.90
2019-03-25T03:05:39.648Z,5.83
2019-03-25T03:08:08.366Z,5.40
2019-03-25T03:10:36.791Z,5.10
2019-03-25T03:13:05.496Z,4.63
2019-03-25T03:15:33.936Z,5.33
2019-03-25T03:18:02.585Z,5.30
2019-03-25T03:20:31.471Z,4.83
2019-03-25T03:22:59.982Z,5.07
2019-03-25T03:25:28.362Z,5.30
2019-03-25T03:27:57.247Z,5.10
2019-03-25T03:30:25.783Z,5.90
2019-03-25T03:32:54.275Z,5.85
2019-03-25T03:35:22.977Z,5.40
2019-03-25T03:37:51.627Z,5.87
2019-03-25T03:40:21.131Z,5.93
2019-03-25T03:42:49.667Z,6.03
2019-03-25T03:45:18.203Z,5.30
2019-03-25T03:47:46.769Z,5.83
2019-03-25T03:50:23.505Z,5.50
2019-03-25T03:52:51.912Z,5.50
2019-03-25T03:55:20.415Z,5.78
2019-03-25T03:57:48.954Z,6.50
2019-03-25T04:00:26.172Z,5.62
2019-03-25T04:02:54.542Z,6.13
2019-03-25T04:05:23.176Z,5.80
2019-03-25T04:07:51.821Z,5.57
2019-03-25T04:10:20.917Z,5.87
2019-03-25T04:12:49.291Z,6.55
2019-03-25T04:15:25.801Z,5.25
2019-03-25T04:17:54.332Z,5.77
2019-03-25T04:20:22.697Z,5.83
2019-03-25T04:22:51.221Z,6.33
2019-03-25T04:25:19.586Z,6.87
2019-03-25T04:27:48.250Z,6.37
2019-03-25T04:30:16.928Z,5.87
2019-03-25T04:32:45.304Z,6.73
2019-03-25T04:35:13.676Z,5.17
2019-03-25T04:37:42.389Z,5.33
2019-03-25T04:40:11.386Z,4.85
2019-03-25T04:42:39.904Z,5.77
2019-03-25T04:45:08.879Z,5.40
2019-03-25T04:47:37.726Z,5.17
2019-03-25T04:50:08.043Z,5.00
2019-03-25T04:52:36.411Z,5.33
2019-03-25T04:55:06.315Z,5.23
2019-03-25T04:57:35.536Z,4.80
2019-03-25T05:00:05.798Z,3.17
2019-03-25T05:02:34.333Z,3.03
2019-03-25T05:05:02.776Z,2.83
2019-03-25T05:07:31.282Z,3.00
2019-03-25T05:09:59.778Z,2.60
2019-03-25T05:12:28.140Z,3.60
2019-03-25T05:14:56.506Z,3.30
2019-03-25T05:17:24.951Z,3.90
2019-03-25T05:19:53.693Z,4.40
2019-03-25T05:22:22.155Z,4.30
2019-03-25T05:24:50.851Z,6.20
2019-03-25T05:27:19.218Z,7.33
2019-03-25T05:29:48.220Z,5.70
2019-03-25T05:32:16.588Z,4.87
2019-03-25T05:34:45.056Z,4.90
2019-03-25T05:37:13.422Z,4.50
2019-03-25T05:39:41.932Z,5.37
2019-03-25T05:42:10.404Z,9.20
2019-03-25T05:44:38.848Z,5.77
2019-03-25T05:47:07.216Z,5.50
2019-03-25T05:49:35.579Z,4.67
2019-03-25T05:52:04.129Z,3.93
2019-03-25T05:54:32.493Z,3.20
2019-03-25T05:57:02.859Z,3.17
2019-03-25T05:59:31.052Z,3.50
2019-03-25T06:01:59.420Z,2.60
2019-03-25T06:04:27.955Z,2.53
2019-03-25T06:06:56.426Z,2.47
2019-03-25T06:09:24.793Z,2.93
2019-03-25T06:11:53.396Z,2.70
2019-03-25T06:14:22.087Z,9.53
2019-03-25T06:16:50.550Z,4.90
2019-03-25T06:19:18.969Z,3.20
2019-03-25T06:21:47.293Z,11.37
2019-03-25T06:24:16.213Z,2.80
2019-03-25T06:26:46.514Z,1.70
2019-03-25T06:29:15.219Z,1.95
2019-03-25T06:31:43.585Z,1.70
2019-03-25T06:34:11.950Z,1.82
2019-03-25T06:36:40.654Z,1.47
2019-03-25T06:39:09.088Z,2.00
2019-03-25T06:41:37.453Z,2.50
2019-03-25T06:44:05.909Z,2.60
2019-03-25T06:46:34.291Z,2.63
2019-03-25T06:49:03.080Z,2.80
2019-03-25T06:51:31.476Z,2.80
2019-03-25T06:53:59.844Z,2.70
2019-03-25T06:56:28.485Z,2.77
2019-03-25T06:58:56.917Z,3.30
2019-03-25T07:01:25.290Z,4.00
2019-03-25T07:03:53.931Z,3.00
2019-03-25T07:06:22.300Z,2.60
2019-03-25T07:08:50.668Z,2.87
2019-03-25T07:11:20.391Z,4.67
2019-03-25T07:13:48.764Z,3.47
2019-03-25T07:16:17.552Z,2.97
2019-03-25T07:18:46.016Z,2.87
2019-03-25T07:21:14.718Z,2.95
2019-03-25T07:23:43.578Z,2.47
2019-03-25T07:26:12.034Z,2.67
2019-03-25T07:28:40.401Z,2.30
2019-03-25T07:31:08.923Z,3.10
2019-03-25T07:33:37.372Z,3.00
2019-03-25T07:36:06.223Z,2.83
2019-03-25T07:38:34.592Z,2.87
2019-03-25T07:41:03.000Z,2.83
2019-03-25T07:43:31.419Z,3.13
2019-03-25T07:45:59.787Z,2.63
2019-03-25T07:48:28.157Z,2.70
2019-03-25T07:50:56.583Z,3.20
2019-03-25T07:53:24.647Z,7.60
2019-03-25T07:55:51.964Z,4.00
2019-03-25T07:58:19.311Z,3.30
2019-03-25T08:00:46.608Z,3.33
2019-03-25T08:03:13.918Z,3.40
2019-03-25T08:05:41.505Z,2.97
2019-03-25T08:08:08.802Z,2.70
2019-03-25T08:10:36.451Z,2.80
2019-03-25T08:13:04.626Z,2.77
2019-03-25T08:15:32.744Z,3.40
2019-03-25T08:18:00.353Z,2.87
2019-03-25T08:20:27.868Z,3.03
2019-03-25T08:22:55.330Z,2.70
2019-03-25T08:25:22.633Z,2.73
2019-03-25T08:27:59.360Z,3.30
2019-03-25T08:30:19.524Z,5.40
2019-03-25T08:32:47.169Z,3.73
2019-03-25T08:35:14.485Z,4.10
2019-03-25T08:37:41.857Z,2.93
2019-03-25T08:40:09.983Z,3.37
2019-03-25T08:42:37.288Z,2.77
2019-03-25T08:45:05.664Z,2.43
2019-03-25T08:47:33.156Z,2.60
2019-03-25T08:50:00.464Z,2.40
2019-03-25T08:52:27.765Z,2.33
2019-03-25T08:54:55.324Z,2.17
2019-03-25T08:57:22.629Z,2.20
2019-03-25T08:59:50.233Z,1.73
2019-03-25T09:02:17.540Z,1.90
2019-03-25T09:04:45.268Z,1.50
2019-03-25T09:07:12.577Z,2.00
2019-03-25T09:09:40.261Z,1.43
2019-03-25T09:12:07.572Z,1.83
2019-03-25T09:14:34.884Z,2.40
2019-03-25T09:17:02.495Z,2.40
2019-03-25T09:19:30.452Z,1.73
2019-03-25T09:21:57.769Z,1.77
2019-03-25T09:24:25.200Z,1.77
2019-03-25T09:26:52.653Z,1.57
2019-03-25T09:29:19.947Z,1.47
2019-03-25T09:31:47.254Z,1.23
2019-03-25T09:34:15.220Z,1.20
2019-03-25T09:36:42.520Z,1.10
2019-03-25T09:39:09.932Z,1.40
2019-03-25T09:41:37.395Z,1.20
2019-03-25T09:44:04.704Z,1.13
2019-03-25T09:46:32.094Z,1.37
2019-03-25T09:48:59.473Z,1.30
2019-03-25T09:51:26.774Z,1.23
2019-03-25T09:53:54.080Z,1.47
2019-03-25T09:56:21.496Z,2.80
2019-03-25T09:58:48.796Z,1.40
2019-03-25T10:01:16.309Z,1.57
2019-03-25T10:03:43.864Z,2.00
2019-03-25T10:06:11.173Z,5.47
2019-03-25T10:08:38.540Z,2.00
2019-03-25T10:11:06.025Z,1.40
2019-03-25T10:13:33.696Z,1.30
2019-03-25T10:16:01.373Z,1.60
2019-03-25T10:18:29.150Z,1.50
2019-03-25T10:20:56.445Z,1.33
2019-03-25T10:23:24.340Z,1.43
2019-03-25T10:25:51.644Z,1.30
2019-03-25T10:28:19.849Z,2.23
2019-03-25T10:30:47.227Z,1.40
2019-03-25T10:33:14.530Z,1.93
2019-03-25T10:35:41.900Z,1.50
2019-03-25T10:38:19.171Z,2.17
2019-03-25T10:40:38.500Z,1.40
2019-03-25T10:43:05.808Z,1.10
2019-03-25T10:45:33.892Z,1.30
2019-03-25T10:48:01.222Z,1.23
2019-03-25T10:50:29.616Z,1.17
2019-03-25T10:52:56.926Z,1.30
2019-03-25T10:55:24.311Z,1.20
2019-03-25T10:57:51.784Z,5.10
2019-03-25T11:00:19.431Z,1.60
2019-03-25T11:02:46.724Z,1.43
2019-03-25T11:05:14.354Z,1.30
2019-03-25T11:10:11.375Z,1.25
2019-03-25T11:12:38.663Z,1.52
2019-03-25T11:15:09.083Z,1.37
2019-03-25T11:17:36.953Z,1.70
2019-03-25T11:20:05.828Z,1.30
2019-03-25T11:22:33.132Z,1.17
2019-03-25T11:25:00.760Z,1.30
2019-03-25T11:27:28.060Z,1.00
2019-03-25T11:29:55.673Z,1.10
2019-03-25T11:32:22.972Z,1.10
2019-03-25T11:34:50.784Z,1.13
2019-03-25T11:37:18.085Z,0.97
2019-03-25T11:39:45.387Z,1.47
2019-03-25T11:42:13.766Z,0.90
2019-03-25T11:44:41.228Z,1.20
2019-03-25T11:47:08.521Z,1.73
2019-03-25T11:49:35.823Z,2.17
2019-03-25T11:52:03.628Z,3.07
2019-03-25T11:54:31.448Z,4.10
2019-03-25T11:56:58.747Z,1.50
2019-03-25T11:59:26.560Z,1.53
2019-03-25T12:01:53.880Z,1.77
2019-03-25T12:04:21.479Z,2.97
2019-03-25T12:06:48.796Z,2.00
2019-03-25T12:09:16.393Z,1.40
2019-03-25T12:11:43.695Z,1.40
2019-03-25T12:14:11.075Z,1.23
2019-03-25T12:16:38.723Z,1.60
2019-03-25T12:19:06.201Z,1.23
2019-03-25T12:21:33.734Z,1.30
2019-03-25T12:24:01.110Z,1.40
2019-03-25T12:26:28.885Z,1.27
2019-03-25T12:28:56.220Z,1.20
2019-03-25T12:31:23.698Z,1.37
2019-03-25T12:33:51.337Z,0.90
2019-03-25T12:36:18.804Z,1.10
2019-03-25T12:38:46.244Z,1.00
2019-03-25T12:41:13.925Z,1.00
2019-03-25T12:43:41.228Z,2.67
2019-03-25T12:46:09.165Z,2.67
2019-03-25T12:48:36.470Z,2.50
2019-03-25T12:51:03.771Z,1.17
2019-03-25T12:53:31.430Z,0.93
2019-03-25T12:55:59.068Z,1.27
2019-03-25T12:58:26.373Z,1.00
2019-03-25T13:00:54.177Z,1.13
2019-03-25T13:03:21.486Z,1.27
2019-03-25T13:05:49.292Z,2.20
2019-03-25T13:08:16.600Z,3.27
2019-03-25T13:10:43.997Z,1.20
2019-03-25T13:13:11.482Z,1.20
2019-03-25T13:15:38.773Z,1.13
2019-03-25T13:18:06.073Z,1.17
2019-03-25T13:20:33.622Z,1.30
2019-03-25T13:23:00.934Z,1.30
2019-03-25T13:25:28.232Z,2.00
2019-03-25T13:27:55.876Z,2.97
2019-03-25T13:30:23.181Z,1.97
2019-03-25T13:32:50.695Z,4.53
2019-03-25T13:35:18.006Z,1.33
2019-03-25T13:37:45.405Z,1.10
2019-03-25T13:40:13.388Z,1.03
2019-03-25T13:42:40.932Z,1.10
2019-03-25T13:45:09.064Z,0.80
2019-03-25T13:47:36.658Z,1.57
2019-03-25T13:50:05.155Z,1.20
2019-03-25T13:52:32.452Z,0.93
2019-03-25T13:55:00.043Z,1.30
2019-03-25T13:57:27.416Z,1.57
2019-03-25T14:00:02.911Z,1.23
2019-03-25T14:02:24.433Z,1.40
2019-03-25T14:04:51.828Z,1.13
2019-03-25T14:07:19.367Z,2.10
2019-03-25T14:09:46.820Z,1.93
2019-03-25T14:12:14.276Z,1.43
2019-03-25T14:14:41.796Z,1.60
2019-03-25T14:17:09.176Z,1.30
2019-03-25T14:19:36.645Z,1.20
2019-03-25T14:22:04.085Z,1.40
2019-03-25T14:24:31.461Z,1.50
2019-03-25T14:26:58.768Z,1.20
2019-03-25T14:29:26.889Z,3.80
2019-03-25T14:31:54.196Z,6.47
2019-03-25T14:34:21.504Z,1.40
2019-03-25T14:36:48.885Z,1.80
2019-03-25T14:39:16.184Z,1.40
2019-03-25T14:41:43.828Z,1.37
2019-03-25T14:44:11.326Z,1.40
2019-03-25T14:46:38.626Z,1.47
2019-03-25T14:49:06.128Z,1.33
2019-03-25T14:51:33.424Z,1.40
2019-03-25T14:54:00.817Z,0.93
2019-03-25T14:56:28.323Z,1.17
2019-03-25T14:58:55.631Z,0.97
2019-03-25T15:01:22.934Z,0.93
2019-03-25T15:03:50.447Z,1.30
2019-03-25T15:06:18.103Z,1.73
2019-03-25T15:08:45.413Z,1.50
2019-03-25T15:11:13.832Z,0.97
2019-03-25T15:13:41.291Z,1.50
2019-03-25T15:16:08.592Z,1.30
2019-03-25T15:18:36.076Z,1.10
2019-03-25T15:21:03.657Z,1.43
2019-03-25T15:23:31.092Z,1.40
2019-03-25T15:25:58.569Z,1.20
2019-03-25T15:28:25.944Z,1.17
2019-03-25T15:30:53.328Z,1.07
2019-03-25T15:33:20.630Z,1.93
2019-03-25T15:35:48.180Z,2.47
2019-03-25T15:38:15.640Z,10.97
2019-03-25T15:40:42.997Z,2.30
2019-03-25T15:43:10.381Z,1.20
2019-03-25T15:45:37.684Z,1.00
2019-03-25T15:48:05.208Z,1.40
2019-03-25T15:50:32.714Z,1.33
2019-03-25T15:53:00.005Z,1.47
2019-03-25T15:55:27.817Z,1.20
2019-03-25T15:57:55.124Z,1.40
2019-03-25T16:00:22.944Z,1.20
2019-03-25T16:02:50.244Z,1.27
2019-03-25T16:05:17.837Z,1.40
2019-03-25T16:07:45.505Z,1.70
2019-03-25T16:10:14.424Z,1.73
2019-03-25T16:12:42.324Z,3.30
2019-03-25T16:15:09.951Z,5.93
2019-03-25T16:17:37.738Z,1.50
2019-03-25T16:20:07.113Z,1.57
2019-03-25T16:22:34.417Z,1.53
2019-03-25T16:25:02.241Z,1.40
2019-03-25T16:27:29.849Z,3.13
2019-03-25T16:29:57.148Z,1.97
2019-03-25T16:32:24.984Z,1.03
2019-03-25T16:34:52.286Z,1.33
2019-03-25T16:37:19.584Z,1.30
2019-03-25T16:39:47.142Z,1.10
2019-03-25T16:42:14.448Z,1.30
2019-03-25T16:44:41.820Z,1.47
2019-03-25T16:47:09.306Z,1.00
2019-03-25T16:49:36.956Z,2.93
2019-03-25T16:52:04.336Z,5.50
2019-03-25T16:54:31.873Z,1.37
2019-03-25T16:56:59.323Z,1.13
2019-03-25T16:59:26.628Z,1.10
2019-03-25T17:01:54.243Z,1.50
2019-03-25T17:04:21.533Z,1.20
2019-03-25T17:06:49.145Z,1.23
2019-03-25T17:09:16.451Z,1.30
2019-03-25T17:11:43.852Z,1.20
2019-03-25T17:14:11.724Z,1.00
2019-03-25T17:16:39.024Z,1.87
2019-03-25T17:19:06.343Z,1.40
2019-03-25T17:21:33.884Z,3.30
2019-03-25T17:24:01.341Z,3.27
2019-03-25T17:26:28.636Z,3.57
2019-03-25T17:28:56.454Z,5.60
2019-03-25T17:31:24.525Z,3.40
2019-03-25T17:33:51.831Z,2.33
2019-03-25T17:36:19.412Z,2.70
2019-03-25T17:38:46.712Z,2.00
2019-03-25T17:41:14.029Z,2.07
2019-03-25T17:43:41.478Z,2.10
2019-03-25T17:46:09.273Z,1.77
2019-03-25T17:48:36.580Z,1.43
2019-03-25T17:51:03.876Z,1.53
2019-03-25T17:53:31.449Z,1.40
2019-03-25T17:55:58.729Z,1.47
2019-03-25T17:58:26.329Z,1.60
2019-03-25T18:00:56.245Z,1.60
2019-03-25T18:03:23.562Z,1.57
2019-03-25T18:05:50.868Z,2.17
2019-03-25T18:08:18.400Z,1.53
2019-03-25T18:10:45.704Z,1.40
2019-03-25T18:13:21.931Z,1.63
2019-03-25T18:15:42.808Z,1.20
2019-03-25T18:18:10.277Z,1.27
2019-03-25T18:20:37.644Z,1.80
2019-03-25T18:23:05.600Z,1.27
2019-03-25T18:25:32.911Z,1.53
2019-03-25T18:28:00.917Z,1.60
2019-03-25T18:30:31.685Z,1.83
2019-03-25T18:33:00.332Z,1.80
2019-03-25T18:35:27.776Z,1.70
2019-03-25T18:37:55.084Z,1.70
2019-03-25T18:40:22.500Z,1.43
2019-03-25T18:42:49.944Z,2.77
2019-03-25T18:45:17.338Z,7.20
2019-03-25T18:47:44.640Z,2.67
2019-03-25T18:50:12.317Z,1.90
2019-03-25T18:52:39.765Z,1.63
2019-03-25T18:55:07.349Z,2.00
2019-03-25T18:57:34.711Z,1.97
2019-03-25T19:00:02.037Z,2.00
2019-03-25T19:02:29.611Z,1.70
2019-03-25T19:04:57.261Z,1.93
2019-03-25T19:07:24.908Z,2.00
2019-03-25T19:09:53.632Z,1.77
2019-03-25T19:12:21.009Z,2.10
2019-03-25T19:14:48.512Z,2.40
2019-03-25T19:17:15.986Z,2.20
2019-03-25T19:19:43.408Z,2.37
2019-03-25T19:22:12.750Z,1.73
2019-03-25T19:24:40.600Z,1.87
2019-03-25T19:27:07.891Z,1.93
2019-03-25T19:29:36.089Z,2.67
2019-03-25T19:32:06.931Z,2.03
2019-03-25T19:34:33.722Z,2.50
2019-03-25T19:37:01.141Z,2.40
2019-03-25T19:39:28.456Z,3.20
2019-03-25T19:41:56.084Z,2.70
2019-03-25T19:44:23.357Z,2.20
2019-03-25T19:46:50.660Z,2.07
2019-03-25T19:49:18.416Z,2.00
2019-03-25T19:51:45.881Z,2.63
2019-03-25T19:54:13.201Z,1.90
2019-03-25T19:56:40.781Z,2.27
2019-03-25T19:59:08.096Z,2.20
2019-03-25T20:01:35.469Z,2.27
2019-03-25T20:04:03.209Z,1.83
2019-03-25T20:06:30.518Z,2.43
2019-03-25T20:08:58.064Z,2.07
2019-03-25T20:11:25.572Z,2.50
2019-03-25T20:13:53.187Z,2.10
2019-03-25T20:16:20.484Z,2.30
2019-03-25T20:18:48.138Z,2.40
2019-03-25T20:21:15.465Z,1.97
2019-03-25T20:23:42.869Z,2.03
2019-03-25T20:26:10.240Z,2.20
2019-03-25T20:28:37.906Z,2.37
2019-03-25T20:31:05.568Z,5.40
2019-03-25T20:33:33.211Z,4.70
2019-03-25T20:36:00.916Z,3.50
2019-03-25T20:38:28.353Z,3.90
2019-03-25T20:40:55.965Z,5.60
2019-03-25T20:43:23.260Z,4.93
2019-03-25T20:45:50.918Z,4.93
2019-03-25T20:48:18.232Z,5.83
2019-03-25T20:50:45.537Z,3.20
2019-03-25T20:53:13.568Z,1.90
2019-03-25T20:55:41.068Z,2.17
2019-03-25T20:58:08.372Z,2.97
2019-03-25T21:00:46.305Z,2.70
2019-03-25T21:03:14.602Z,3.33
2019-03-25T21:05:42.014Z,2.80
2019-03-25T21:08:09.464Z,10.57
2019-03-25T21:10:36.841Z,4.87
2019-03-25T21:13:05.037Z,2.77
2019-03-25T21:15:32.407Z,2.47
2019-03-25T21:17:59.950Z,1.97
2019-03-25T21:20:27.425Z,1.90
2019-03-25T21:22:54.838Z,2.27
2019-03-25T21:25:22.286Z,2.00
2019-03-25T21:27:49.670Z,2.00
2019-03-25T21:30:17.446Z,2.10
2019-03-25T21:32:57.267Z,2.33
2019-03-25T21:35:13.924Z,2.40
2019-03-25T21:37:41.319Z,2.40
2019-03-25T21:40:09.273Z,2.30
2019-03-25T21:42:36.661Z,2.33
2019-03-25T21:45:05.608Z,2.60
2019-03-25T21:47:32.945Z,2.50
2019-03-25T21:50:01.258Z,2.47
2019-03-25T21:52:29.030Z,2.40
2019-03-25T21:54:56.316Z,2.13
2019-03-25T21:57:23.981Z,1.67
2019-03-25T21:59:51.564Z,3.07
2019-03-25T22:02:18.865Z,3.30
2019-03-25T22:04:46.282Z,3.53
2019-03-25T22:07:13.586Z,3.53
2019-03-25T22:09:40.994Z,2.60
2019-03-25T22:12:08.483Z,2.73
2019-03-25T22:14:35.788Z,3.10
2019-03-25T22:17:03.160Z,2.80
2019-03-25T22:19:30.607Z,3.07
2019-03-25T22:21:58.269Z,2.37
2019-03-25T22:24:25.573Z,2.80
2019-03-25T22:26:53.019Z,2.97
2019-03-25T22:29:20.412Z,2.60
2019-03-25T22:31:47.719Z,2.90
2019-03-25T22:34:15.183Z,2.20
2019-03-25T22:36:42.856Z,2.97
2019-03-25T22:39:10.171Z,3.33
2019-03-25T22:41:37.618Z,2.40
2019-03-25T22:44:05.167Z,2.67
2019-03-25T22:46:32.829Z,2.83
2019-03-25T22:49:00.264Z,1.90
2019-03-25T22:51:27.740Z,2.63
2019-03-25T22:53:55.040Z,6.00
2019-03-25T22:56:22.450Z,2.43
2019-03-25T22:58:49.804Z,2.10
2019-03-25T23:01:17.111Z,2.13
2019-03-25T23:03:44.404Z,2.27
2019-03-25T23:06:11.846Z,3.47
2019-03-25T23:08:39.152Z,3.80
2019-03-25T23:11:06.448Z,2.87
2019-03-25T23:13:34.003Z,2.80
2019-03-25T23:16:01.307Z,3.97
2019-03-25T23:18:28.618Z,4.00
2019-03-25T23:20:56.175Z,3.23
2019-03-25T23:23:23.630Z,4.87
2019-03-25T23:25:50.924Z,4.03
2019-03-25T23:28:18.276Z,3.70
2019-03-25T23:30:45.580Z,3.40
2019-03-25T23:33:12.905Z,3.83
2019-03-25T23:35:40.500Z,2.63
2019-03-25T23:38:07.955Z,4.67
2019-03-25T23:40:35.260Z,4.70
2019-03-25T23:43:02.897Z,7.80
2019-03-25T23:45:30.196Z,5.50
2019-03-25T23:47:58.339Z,3.40
2019-03-25T23:50:25.644Z,2.50
2019-03-25T23:52:52.956Z,3.27
2019-03-25T23:55:20.892Z,2.70
2019-03-25T23:57:48.280Z,3.23
